• Join FlightAware (Why Join?)
  • Login
  • US Flag 
06:21PM EDT


 

Airport Tracker/Info


-or-


 

Live Flight TrackerFlight Track Log ✈ DAL6032 ✈ 17-Nov-2013 ✈ KCVG - KBDL

Flight Track Log - Related Links

Times and Time Zones

All times are in EST time to prevent confusion due to time zone crossing. See the DAL6032 flight status page for this flight to view local times or setup timezone preferences in your user account.

Time Position Orientation Groundspeed Altitude Reporting Facility
EST Latitude Longitude Course Direction KTS MPH feet Rate Location/Type
02:11PM 39.0500 -84.6667 65° Northeast 140 161 1,300  Level Cincinnati TRACON
02:12PM 39.0167 -84.6167 131° Southeast 210 242 3,900 2,100 Climbing Cincinnati TRACON
02:13PM 39.0289 -84.5753 69° East 244 281 4,800 2,040 Climbing Indianapolis Center
02:14PM 39.0531 -84.4886 70° East 259 298 7,200 2,160 Climbing Indianapolis Center
02:15PM 39.2275 -84.0755 69° East  Level Estimated
02:15PM 39.0789 -84.3958 70° East 273 314 9,300  Level Indianapolis Center
02:16PM 39.2717 -83.9269 North  Level Estimated
02:16PM 39.1044 -84.2953 72° East 292 336 11,400  Level Indianapolis Center
02:17PM 39.3157 -83.7782 65° Northeast  Level Estimated
02:17PM 39.1561 -84.1761 61° Northeast 321 369 13,500  Level Indianapolis Center
02:18PM 39.2175 -84.0731 52° Northeast 357 411 14,500 780 Climbing Indianapolis Center
02:19PM 39.2883 -83.9589 51° Northeast 403 464 15,100 1,080 Climbing Indianapolis Center
02:20PM 39.3625 -83.8442 50° Northeast 417 480 16,800 1,860 Climbing Indianapolis Center
02:21PM 39.4219 -83.7183 59° Northeast 421 484 19,000 2,040 Climbing Indianapolis Center
02:22PM 39.4464 -83.5772 77° East 407 468 21,000 1,920 Climbing Indianapolis Center
02:23PM 39.4686 -83.4375 78° East 402 463 23,000 2,100 Climbing Indianapolis Center
02:24PM 39.4950 -83.2739 78° East 392 451 25,400 1,920 Climbing Indianapolis Center
02:25PM 39.5156 -83.1394 79° East 386 444 27,000 780 Climbing Indianapolis Center
02:26PM 39.5381 -82.9958 78° East 405 466 27,000 300 Level Indianapolis Center
02:27PM 39.5633 -82.8322 79° East 459 528 27,700 1,260 Climbing Indianapolis Center
02:28PM 39.5883 -82.6750 78° East 452 520 29,700 1,560 Climbing Indianapolis Center
02:29PM 39.6111 -82.5214 79° East 440 506 30,900 600 Climbing Indianapolis Center
02:30PM 39.6356 -82.3586 79° East 457 526 31,000  Climbing Indianapolis Center
02:31PM 39.6672 -82.1503 79° East 489 563 31,000  Level Indianapolis Center
02:32PM 39.6925 -81.9736 79° East 503 579 31,000  Level Indianapolis Center
02:33PM 39.7200 -81.7894 79° East 511 588 31,000  Level Indianapolis Center
02:34PM 39.7450 -81.6072 80° East 513 590 31,000  Level Indianapolis Center
02:35PM 39.7731 -81.4200 79° East 520 598 31,000  Level Indianapolis Center
02:36PM 39.7986 -81.2319 80° East 524 603 31,000  Level Indianapolis Center
02:37PM 39.8256 -81.0453 79° East 523 602 31,000  Level Indianapolis Center
02:38PM 39.8497 -80.8650 80° East 509 586 31,000  Level Indianapolis Center
02:39PM 39.8797 -80.6494 80° East 501 577 31,000  Level Indianapolis Center
02:40PM 39.8944 -80.5381 80° East 507 583 31,000  Level Cleveland Center
02:41PM 39.9264 -80.3667 76° East 498 573 31,000  Level Cleveland Center
02:42PM 39.9903 -80.2122 62° Northeast 489 563 31,000  Level Cleveland Center
02:43PM 40.0694 -80.0278 61° Northeast 493 567 31,000  Level Cleveland Center
02:44PM 40.1350 -79.8744 61° Northeast 492 566 31,000  Level Cleveland Center
02:45PM 40.2019 -79.7192 61° Northeast 495 570 31,000  Level Cleveland Center
02:46PM 40.2667 -79.5631 61° Northeast 495 570 31,000  Level Cleveland Center
02:47PM 40.3333 -79.4086 60° Northeast 492 566 31,000  Level Cleveland Center
02:48PM 40.4022 -79.2414 62° Northeast 492 566 31,000  Level Cleveland Center
02:49PM 40.4678 -79.0858 61° Northeast 492 566 31,000  Level Cleveland Center
02:51PM 40.5447 -78.9014 61° Northeast 487 560 31,000  Level Cleveland Center
02:52PM 40.6083 -78.7469 61° Northeast 487 560 31,000  Level Cleveland Center
02:53PM 40.6722 -78.5933 61° Northeast 485 558 31,000  Level Cleveland Center
02:54PM 40.7347 -78.4400 62° Northeast 485 558 31,000  Level Cleveland Center
02:55PM 40.7969 -78.2878 62° Northeast 482 555 31,000  Level Cleveland Center
02:56PM 40.8711 -78.1047 62° Northeast 480 552 31,000  Level Cleveland Center
02:57PM 40.9375 -77.9556 59° Northeast 478 550 31,000  Level Cleveland Center
02:58PM 41.0203 -77.8169 52° Northeast 484 557 31,000  Level Cleveland Center
02:59PM 41.1022 -77.6767 52° Northeast 486 559 31,000  Level Cleveland Center
03:00PM 41.1833 -77.5353 53° Northeast 487 560 31,000  Level Cleveland Center
03:01PM 41.2822 -77.3647 52° Northeast 488 562 31,000  Level Cleveland Center
03:02PM 41.3644 -77.2222 52° Northeast 488 562 31,000  Level Cleveland Center
03:03PM 41.4464 -77.0789 53° Northeast 491 565 31,000  Level Cleveland Center
03:04PM 41.5283 -76.9347 53° Northeast 491 565 31,000  Level Cleveland Center
03:05PM 41.6053 -76.7992 53° Northeast 491 565 31,000  Level Cleveland Center
03:06PM 41.6794 -76.6703 52° Northeast 491 565 31,000  Level Boston Center
03:07PM 41.7628 -76.5228 53° Northeast 493 567 31,000  Level Boston Center
03:08PM 41.8464 -76.3756 53° Northeast 493 567 31,000  Level Boston Center
03:09PM 41.9289 -76.2253 54° Northeast 497 572 31,000  Level Boston Center
03:10PM 42.0114 -76.0775 53° Northeast 495 570 31,000  Level Boston Center
03:11PM 42.0947 -75.9281 53° Northeast 499 574 31,000  Level Boston Center
03:12PM 42.1764 -75.7789 54° Northeast 497 572 31,000  Level Boston Center
03:13PM 42.2581 -75.6281 54° Northeast 500 575 31,000 -1,320 Level Boston Center
03:14PM 42.3447 -75.4683 54° Northeast 492 566 28,400 -2,280 Descending Boston Center
03:15PM 42.4189 -75.3294 54° Northeast 463 533 26,300 -2,340 Descending Boston Center
03:16PM 42.4683 -75.1528 69° East 438 504 23,600 -2,340 Descending Boston Center
03:17PM 42.4722 -74.9967 88° East 418 481 21,600 -2,040 Descending Boston Center
03:18PM 42.4750 -74.8489 88° East 397 457 19,600 -1,740 Descending Boston Center
03:19PM 42.4786 -74.6908 88° East 409 471 18,100 -780 Descending Boston Center
03:20PM 42.4814 -74.5375 89° East 410 472 18,000 -120 Descending Boston Center
03:21PM 42.4825 -74.3742 89° East 405 466 17,900 -600 Descending Boston Center
03:22PM 42.4614 -74.2267 101° East 397 457 16,900 -540 Descending Boston Center
03:23PM 42.4378 -74.0853 103° East 388 447 16,900  Level Boston Center
03:24PM 42.4153 -73.9433 102° East 363 418 17,000  Climbing Boston Center
03:25PM 42.3928 -73.8103 103° East 366 421 17,000 -900 Level Boston Center
03:26PM 42.3667 -73.6561 103° East 380 437 15,100 -1,860 Descending Boston Center
03:27PM 42.3433 -73.5172 103° East 393 452 13,300 -1,860 Descending Boston Center
03:28PM 42.3206 -73.3881 103° East 373 429 11,600 -1,140 Descending Boston Center
03:29PM 42.2992 -73.2400 101° East 375 432 11,000 -600 Descending Boston Center
03:29PM 42.2939 -73.2325 134° Southeast 362 417 11,000 -1,260 Level Boston Center
03:30PM 42.2328 -73.1722 144° Southeast 282 325 9,800 -1,260 Descending Boston Center
03:30PM 42.2339 -73.1728 340° North 298 343 9,800 -1,740 Level Boston Center
03:31PM 42.1675 -73.1192 149° Southeast 280 322 8,000 -1,920 Descending Boston Center
03:31PM 42.1564 -73.1122 155° Southeast 272 313 7,600 -1,620 Descending Boston Center
03:32PM 42.1014 -73.0650 147° Southeast 260 299 6,300 -1,380 Descending Boston Center
03:32PM 42.1011 -73.0656 236° Southwest 256 295 6,300 -1,200 Level Boston Center
03:33PM 42.0447 -73.0228 151° Southeast 234 269 5,100 -1,140 Descending Boston Center
03:34PM 42.0294 -73.0133 155° Southeast 228 262 5,000 -900 Descending Boston Center
03:34PM 41.9897 -72.9819 150° Southeast 227 261 4,200 -900 Descending Boston Center
03:35PM 41.9769 -72.9742 156° South 217 250 4,100 -120 Descending Boston Center
03:35PM 41.9475 -72.9603 161° South 191 220 4,100  Level Boston Center
03:35PM 41.9353 -72.9553 163° South 196 226 4,100  Level Boston Center
03:36PM 41.8867 -72.9611 185° South 208 239 4,100  Level Boston Center
03:37PM 41.8431 -72.9922 208° Southwest 212 244 4,100 -720 Level Boston Center
03:38PM 41.8125 -72.9292 123° Southeast 206 237 2,700 -1,380 Descending Boston Center
03:38PM 41.8089 -72.9189 115° Southeast 207 238 2,600 -120 Descending Boston Center
03:39PM 41.8250 -72.8578 70° East 181 208 2,600 -60 Level Boston Center
03:40PM 41.8522 -72.8017 57° Northeast 188 216 2,500 -600 Descending Boston Center
03:41PM 41.8889 -72.7531 45° Northeast 183 211 1,500 -900 Descending Boston Center
03:42PM 41.9169 -72.7153 45° Northeast 136 157 600 -660 Descending Boston Center
03:43PM 41.9433 -72.6814 44° Northeast 135 155 200 -420 Descending Boston Center